Nautilus — P3QQ7 — position and weather

sailwx.info

Track history (hours):
 
Tides and Currents Weather Stations Pressure Air Temp Water Temp Dewpoint Dewpoint Depression Visibility Wind Speed Wind Dir Waves Ship Positions

Nautilus

Last reported at 2014-Nov-09 15:32 UTC. Time now 2014-Nov-21 20:19 UTC.
Position N 44°04' E 031°18'.
Warning: this ship's position is 12 days out of date.

Length 176 m; draft 10 m.

Type: Tanker. MMSI: 212434000.

Date/timePositionNaut miles runAvg speedWind from/ knotsBaromVisibWave heightAir tempDewpointWater temp
2014-Nov-09 15:32N 44°04' E 031°18'1412.5
2014-Nov-09 14:24N 44°04' E 031°38'7012.0
2014-Nov-09 08:32N 44°07' E 033°16'2912.9
2014-Nov-09 06:19N 44°08' E 033°55'1013.2
2014-Nov-09 05:33N 44°08' E 034°09'1313.5
2014-Nov-09 04:33N 44°09' E 034°28'1312.6
2014-Nov-09 03:33N 44°09' E 034°46'1212.2
2014-Nov-09 02:33N 44°11' E 035°02'1312.7
2014-Nov-09 01:33N 44°19' E 035°16'1312.6
2014-Nov-09 00:33N 44°25' E 035°32'1312.9
2014-Nov-08 23:33N 44°32' E 035°47'1313.0
2014-Nov-08 22:33N 44°39' E 036°03'1312.8
2014-Nov-08 21:33N 44°46' E 036°18'1111.3
2014-Nov-08 20:33N 44°54' E 036°28'1212.3
2014-Nov-08 19:33N 45°07' E 036°29'3 2.6
2014-Nov-08 18:31N 45°06' E 036°33'0 0.0
2014-Nov-08 17:31N 45°06' E 036°33'0 0.0
2014-Nov-08 16:31N 45°06' E 036°33'0 0.0
2014-Nov-08 15:31N 45°06' E 036°33'0 0.0
2014-Nov-08 14:28N 45°06' E 036°33'0 0.0
2014-Nov-08 13:31N 45°06' E 036°33'0 0.0
2014-Nov-08 12:31N 45°06' E 036°33'0 0.0
2014-Nov-08 11:31N 45°06' E 036°33'0 0.0
2014-Nov-08 10:31N 45°06' E 036°33'0 0.0
2014-Nov-08 09:31N 45°06' E 036°33'0 0.0
2014-Nov-08 08:31N 45°06' E 036°33'0 0.0
2014-Nov-08 07:31N 45°06' E 036°33'0 0.0
2014-Nov-08 06:28N 45°06' E 036°33'0 0.0
2014-Nov-08 05:31N 45°06' E 036°33'0 0.0
2014-Nov-07 16:31N 45°06' E 036°33'0 0.0
2014-Nov-07 15:28N 45°06' E 036°33'0 0.0
2014-Nov-07 10:25N 45°06' E 036°33'0 0.0
2014-Nov-05 11:31N 45°07' E 036°34'0 0.1
2014-Nov-05 09:30N 45°07' E 036°34'  
2014-Oct-31 06:09N 41°32' E 029°41'711.1
2014-Oct-31 05:33N 41°28' E 029°33'1110.7
2014-Oct-31 04:34N 41°23' E 029°21'1111.0
2014-Oct-31 03:33N 41°15' E 029°10'19 9.7
2014-Oct-31 01:33N 40°58' E 028°59'10 9.9
2014-Oct-31 00:33N 40°50' E 028°52'2 0.8
2014-Oct-30 21:21N 40°49' E 028°48'  
Track history (hours):
 
Tides and Currents Weather Stations Pressure Air Temp Water Temp Dewpoint Dewpoint Depression Visibility Wind Speed Wind Dir Waves Ship Positions

Nautilus

Last reported at 2014-Nov-09 15:32 UTC. Time now 2014-Nov-21 20:19 UTC.
Position N 44°04' E 031°18'.
Warning: this ship's position is 12 days out of date.

Length 176 m; draft 10 m.

Type: Tanker. MMSI: 212434000.

Date/timePositionNaut miles runAvg speedWind from/ knotsBaromVisibWave heightAir tempDewpointWater temp
2014-Nov-09 15:32N 44°04' E 031°18'1412.5
2014-Nov-09 14:24N 44°04' E 031°38'7012.0
2014-Nov-09 08:32N 44°07' E 033°16'2912.9
2014-Nov-09 06:19N 44°08' E 033°55'1013.2
2014-Nov-09 05:33N 44°08' E 034°09'1313.5
2014-Nov-09 04:33N 44°09' E 034°28'1312.6
2014-Nov-09 03:33N 44°09' E 034°46'1212.2
2014-Nov-09 02:33N 44°11' E 035°02'1312.7
2014-Nov-09 01:33N 44°19' E 035°16'1312.6
2014-Nov-09 00:33N 44°25' E 035°32'1312.9
2014-Nov-08 23:33N 44°32' E 035°47'1313.0
2014-Nov-08 22:33N 44°39' E 036°03'1312.8
2014-Nov-08 21:33N 44°46' E 036°18'1111.3
2014-Nov-08 20:33N 44°54' E 036°28'1212.3
2014-Nov-08 19:33N 45°07' E 036°29'3 2.6
2014-Nov-08 18:31N 45°06' E 036°33'0 0.0
2014-Nov-08 17:31N 45°06' E 036°33'0 0.0
2014-Nov-08 16:31N 45°06' E 036°33'0 0.0
2014-Nov-08 15:31N 45°06' E 036°33'0 0.0
2014-Nov-08 14:28N 45°06' E 036°33'0 0.0
2014-Nov-08 13:31N 45°06' E 036°33'0 0.0
2014-Nov-08 12:31N 45°06' E 036°33'0 0.0
2014-Nov-08 11:31N 45°06' E 036°33'0 0.0
2014-Nov-08 10:31N 45°06' E 036°33'0 0.0
2014-Nov-08 09:31N 45°06' E 036°33'0 0.0
2014-Nov-08 08:31N 45°06' E 036°33'0 0.0
2014-Nov-08 07:31N 45°06' E 036°33'0 0.0
2014-Nov-08 06:28N 45°06' E 036°33'0 0.0
2014-Nov-08 05:31N 45°06' E 036°33'0 0.0
2014-Nov-07 16:31N 45°06' E 036°33'0 0.0
2014-Nov-07 15:28N 45°06' E 036°33'0 0.0
2014-Nov-07 10:25N 45°06' E 036°33'0 0.0
2014-Nov-05 11:31N 45°07' E 036°34'0 0.1
2014-Nov-05 09:30N 45°07' E 036°34'  
2014-Oct-31 06:09N 41°32' E 029°41'711.1
2014-Oct-31 05:33N 41°28' E 029°33'1110.7
2014-Oct-31 04:34N 41°23' E 029°21'1111.0
2014-Oct-31 03:33N 41°15' E 029°10'19 9.7
2014-Oct-31 01:33N 40°58' E 028°59'10 9.9
2014-Oct-31 00:33N 40°50' E 028°52'2 0.8
2014-Oct-30 21:21N 40°49' E 028°48'  

Dump ship's entire track history